createdAt,value
2018-12-22T00:00:36.898Z,0.00
2018-12-22T00:01:36.931Z,0.00
2018-12-22T00:02:36.960Z,0.00
2018-12-22T00:03:36.990Z,0.00
2018-12-22T00:04:37.022Z,0.00
2018-12-22T00:05:37.052Z,0.00
2018-12-22T00:06:37.085Z,0.00
2018-12-22T00:07:37.114Z,0.00
2018-12-22T00:08:37.144Z,0.00
2018-12-22T00:09:37.174Z,0.00
2018-12-22T00:10:37.207Z,0.00
2018-12-22T00:11:37.238Z,0.00
2018-12-22T00:12:37.266Z,0.00
2018-12-22T00:13:37.299Z,0.00
2018-12-22T00:14:37.330Z,0.00
2018-12-22T00:15:37.360Z,0.00
2018-12-22T00:16:37.392Z,0.00
2018-12-22T00:17:37.422Z,0.00
2018-12-22T00:18:37.453Z,0.00
2018-12-22T00:19:37.484Z,0.00
2018-12-22T00:20:37.515Z,0.00
2018-12-22T00:21:37.550Z,0.00
2018-12-22T00:22:37.576Z,0.00
2018-12-22T00:23:37.607Z,0.00
2018-12-22T00:24:37.637Z,0.00
2018-12-22T00:25:37.669Z,0.00
2018-12-22T00:26:37.699Z,0.00
2018-12-22T00:27:38.876Z,0.00
2018-12-22T00:28:37.761Z,0.00
2018-12-22T00:29:37.793Z,0.00
2018-12-22T00:30:37.824Z,0.00
2018-12-22T00:31:37.852Z,0.00
2018-12-22T00:32:37.885Z,0.00
2018-12-22T00:33:37.915Z,0.00
2018-12-22T00:34:37.949Z,0.00
2018-12-22T00:35:37.977Z,0.00
2018-12-22T00:36:38.007Z,0.00
2018-12-22T00:37:38.036Z,0.00
2018-12-22T00:38:38.069Z,0.00
2018-12-22T00:39:38.100Z,0.00
2018-12-22T00:40:38.131Z,0.00
2018-12-22T00:41:38.161Z,0.00
2018-12-22T00:42:38.192Z,0.00
2018-12-22T00:43:38.222Z,0.00
2018-12-22T00:44:38.253Z,0.00
2018-12-22T00:45:38.283Z,0.00
2018-12-22T00:46:38.316Z,0.00
2018-12-22T00:47:38.345Z,0.00
2018-12-22T00:48:38.376Z,0.00
2018-12-22T00:49:38.407Z,0.00
2018-12-22T00:50:38.439Z,0.00
2018-12-22T00:51:38.467Z,0.00
2018-12-22T00:52:38.500Z,0.00
2018-12-22T00:53:38.533Z,0.00
2018-12-22T00:54:38.568Z,0.00
2018-12-22T00:55:38.591Z,0.00
2018-12-22T00:56:38.622Z,0.00
2018-12-22T00:57:38.655Z,0.00
2018-12-22T00:58:38.687Z,0.00
2018-12-22T00:59:38.714Z,0.00
2018-12-22T01:00:38.744Z,0.00
2018-12-22T01:01:38.775Z,0.00
2018-12-22T01:02:38.807Z,0.00
2018-12-22T01:03:38.836Z,0.00
2018-12-22T01:04:38.893Z,0.00
2018-12-22T01:05:38.901Z,0.00
2018-12-22T01:06:38.928Z,0.00
2018-12-22T01:07:38.959Z,0.00
2018-12-22T01:08:38.989Z,0.00
2018-12-22T01:09:39.021Z,0.00
2018-12-22T01:10:39.051Z,0.00
2018-12-22T01:11:39.082Z,0.00
2018-12-22T01:12:39.111Z,0.00
2018-12-22T01:13:39.146Z,0.00
2018-12-22T01:14:39.175Z,0.00
2018-12-22T01:15:39.202Z,0.00
2018-12-22T01:16:39.234Z,0.00
2018-12-22T01:17:39.265Z,0.00
2018-12-22T01:18:39.345Z,0.00
2018-12-22T01:19:39.326Z,0.00
2018-12-22T01:20:39.355Z,0.00
2018-12-22T01:21:39.386Z,0.00
2018-12-22T01:22:39.418Z,0.00
2018-12-22T01:23:39.447Z,0.00
2018-12-22T01:24:39.478Z,0.00
2018-12-22T01:25:39.508Z,0.00
2018-12-22T01:26:39.538Z,0.00
2018-12-22T01:27:39.570Z,0.00
2018-12-22T01:28:39.819Z,0.00
2018-12-22T01:29:39.629Z,0.00
2018-12-22T01:30:39.660Z,0.00
2018-12-22T01:31:39.691Z,0.00
2018-12-22T01:32:39.721Z,0.00
2018-12-22T01:33:39.751Z,0.00
2018-12-22T01:34:39.783Z,0.00
2018-12-22T01:35:39.812Z,0.00
2018-12-22T01:36:39.847Z,0.00
2018-12-22T01:37:39.875Z,0.00
2018-12-22T01:38:39.904Z,0.00
2018-12-22T01:39:39.936Z,0.00
2018-12-22T01:40:39.966Z,0.00
2018-12-22T01:41:39.996Z,0.00
2018-12-22T01:42:40.027Z,0.00
2018-12-22T01:43:40.056Z,0.00
2018-12-22T01:44:40.088Z,0.00
2018-12-22T01:45:40.118Z,0.00
2018-12-22T01:46:40.150Z,0.00
2018-12-22T01:47:40.181Z,0.00
2018-12-22T01:48:40.211Z,0.00
2018-12-22T01:49:40.240Z,0.00
2018-12-22T01:50:40.271Z,0.00
2018-12-22T01:51:40.302Z,0.00
2018-12-22T01:52:40.332Z,0.00
2018-12-22T01:53:40.363Z,0.00
2018-12-22T01:54:40.392Z,0.00
2018-12-22T01:55:40.421Z,0.00
2018-12-22T01:56:40.454Z,0.00
2018-12-22T01:57:40.485Z,0.00
2018-12-22T01:58:47.631Z,0.00
2018-12-22T01:59:40.544Z,0.00
2018-12-22T02:00:40.575Z,0.00
2018-12-22T02:01:40.604Z,0.00
2018-12-22T02:02:40.638Z,0.00
2018-12-22T02:03:40.667Z,0.00
2018-12-22T02:04:40.763Z,0.00
2018-12-22T02:05:40.727Z,0.00
2018-12-22T02:06:40.761Z,0.00
2018-12-22T02:07:40.790Z,0.00
2018-12-22T02:08:40.818Z,0.00
2018-12-22T02:09:40.850Z,0.00
2018-12-22T02:10:40.879Z,0.00
2018-12-22T02:11:40.909Z,0.00
2018-12-22T02:12:40.942Z,0.00
2018-12-22T02:13:40.972Z,0.00
2018-12-22T02:14:41.002Z,0.00
2018-12-22T02:15:41.031Z,0.00
2018-12-22T02:16:41.063Z,0.00
2018-12-22T02:17:41.095Z,0.00
2018-12-22T02:18:41.126Z,0.00
2018-12-22T02:19:41.156Z,0.00
2018-12-22T02:20:41.185Z,0.00
2018-12-22T02:21:41.319Z,0.00
2018-12-22T02:22:41.248Z,0.00
2018-12-22T02:23:41.286Z,0.00
2018-12-22T02:24:41.307Z,0.00
2018-12-22T02:25:41.368Z,0.00
2018-12-22T02:26:41.368Z,0.00
2018-12-22T02:27:41.399Z,0.00
2018-12-22T02:28:41.431Z,0.00
2018-12-22T02:29:41.461Z,0.00
2018-12-22T02:30:41.491Z,0.00
2018-12-22T02:31:41.522Z,0.00
2018-12-22T02:32:41.553Z,0.00
2018-12-22T02:33:41.583Z,0.00
2018-12-22T02:34:41.614Z,0.00
2018-12-22T02:35:41.644Z,0.00
2018-12-22T02:36:41.675Z,0.00
2018-12-22T02:37:41.707Z,0.00
2018-12-22T02:38:41.735Z,0.00
2018-12-22T02:39:41.767Z,0.00
2018-12-22T02:40:41.799Z,0.00
2018-12-22T02:41:41.828Z,0.00
2018-12-22T02:42:41.858Z,0.00
2018-12-22T02:43:41.892Z,0.00
2018-12-22T02:44:41.916Z,0.00
2018-12-22T02:45:41.949Z,0.00
2018-12-22T02:46:41.979Z,0.00
2018-12-22T02:47:42.011Z,0.00
2018-12-22T02:48:42.041Z,0.00
2018-12-22T02:49:42.073Z,0.00
2018-12-22T02:50:42.103Z,0.00
2018-12-22T02:51:42.132Z,0.00
2018-12-22T02:52:42.162Z,0.00
2018-12-22T02:53:42.195Z,0.00
2018-12-22T02:54:42.223Z,0.00
2018-12-22T02:55:42.255Z,0.00
2018-12-22T02:56:42.283Z,0.00
2018-12-22T02:57:42.317Z,0.00
2018-12-22T02:58:42.346Z,0.00
2018-12-22T02:59:42.378Z,0.00
2018-12-22T03:00:42.407Z,0.00
2018-12-22T03:01:42.448Z,0.00
2018-12-22T03:02:42.468Z,0.00
2018-12-22T03:03:42.498Z,0.00
2018-12-22T03:04:42.529Z,0.00
2018-12-22T03:05:42.559Z,0.00
2018-12-22T03:06:42.593Z,0.00
2018-12-22T03:07:42.620Z,0.00
2018-12-22T03:08:42.651Z,0.00
2018-12-22T03:09:42.682Z,0.00
2018-12-22T03:10:42.714Z,0.00
2018-12-22T03:11:42.744Z,0.00
2018-12-22T03:12:42.773Z,0.00
2018-12-22T03:13:42.803Z,0.00
2018-12-22T03:14:42.835Z,0.00
2018-12-22T03:15:42.867Z,0.00
2018-12-22T03:16:42.903Z,0.00
2018-12-22T03:17:42.925Z,0.00
2018-12-22T03:18:42.957Z,0.00
2018-12-22T03:19:42.988Z,0.00
2018-12-22T03:20:43.019Z,0.00
2018-12-22T03:21:43.048Z,0.00
2018-12-22T03:22:43.081Z,0.00
2018-12-22T03:23:43.119Z,0.00
2018-12-22T03:24:43.140Z,0.00
2018-12-22T03:25:43.172Z,0.00
2018-12-22T03:26:43.204Z,0.00
2018-12-22T03:27:43.234Z,0.00
2018-12-22T03:28:43.277Z,0.00
2018-12-22T03:29:43.297Z,0.00
2018-12-22T03:30:43.329Z,0.00
2018-12-22T03:31:43.356Z,0.00
2018-12-22T03:32:43.386Z,0.00
2018-12-22T03:33:43.416Z,0.00
2018-12-22T03:34:43.449Z,0.00
2018-12-22T03:35:43.478Z,0.00
2018-12-22T03:36:43.509Z,0.00
2018-12-22T03:37:43.541Z,0.00
2018-12-22T03:38:43.571Z,0.00
2018-12-22T03:39:43.600Z,0.00
2018-12-22T03:40:43.633Z,0.00
2018-12-22T03:41:43.664Z,0.00
2018-12-22T03:42:43.692Z,0.00
2018-12-22T03:43:43.722Z,0.00
2018-12-22T03:44:43.754Z,0.00
2018-12-22T03:45:43.784Z,0.00
2018-12-22T03:46:43.815Z,0.00
2018-12-22T03:47:43.863Z,0.00
2018-12-22T03:48:43.876Z,0.00
2018-12-22T03:49:43.909Z,0.00
2018-12-22T03:50:43.942Z,0.00
2018-12-22T03:51:43.967Z,0.00
2018-12-22T03:52:43.998Z,0.00
2018-12-22T03:53:44.030Z,0.00
2018-12-22T03:54:44.061Z,0.00
2018-12-22T03:55:44.094Z,0.00
2018-12-22T03:56:44.119Z,0.00
2018-12-22T03:57:44.152Z,0.00
2018-12-22T03:58:44.181Z,0.00
2018-12-22T03:59:44.212Z,0.00
2018-12-22T04:00:44.241Z,0.00
2018-12-22T04:01:44.273Z,0.00
2018-12-22T04:02:44.306Z,0.00
2018-12-22T04:03:44.337Z,0.00
2018-12-22T04:04:44.424Z,0.00
2018-12-22T04:05:44.396Z,0.00
2018-12-22T04:06:44.425Z,0.00
2018-12-22T04:07:44.454Z,0.00
2018-12-22T04:08:44.484Z,0.00
2018-12-22T04:09:44.515Z,0.00
2018-12-22T04:10:44.546Z,0.00
2018-12-22T04:11:44.577Z,0.00
2018-12-22T04:12:44.610Z,0.00
2018-12-22T04:13:44.642Z,0.00
2018-12-22T04:14:44.668Z,0.00
2018-12-22T04:15:44.707Z,0.00
2018-12-22T04:16:44.730Z,0.00
2018-12-22T04:17:44.777Z,0.00
2018-12-22T04:18:44.794Z,0.00
2018-12-22T04:19:44.819Z,0.00
2018-12-22T04:20:44.850Z,0.00
2018-12-22T04:21:44.880Z,0.00
2018-12-22T04:22:44.910Z,0.00
2018-12-22T04:23:44.940Z,0.00
2018-12-22T04:24:44.972Z,0.00
2018-12-22T04:25:45.002Z,0.00
2018-12-22T04:26:45.039Z,0.00
2018-12-22T04:27:45.061Z,0.00
2018-12-22T04:28:45.095Z,0.00
2018-12-22T04:29:45.123Z,0.00
2018-12-22T04:30:45.154Z,0.00
2018-12-22T04:31:45.184Z,0.00
2018-12-22T04:32:45.213Z,0.00
2018-12-22T04:33:45.244Z,0.00
2018-12-22T04:34:45.275Z,0.00
2018-12-22T04:35:45.428Z,0.00
2018-12-22T04:36:45.337Z,0.00
2018-12-22T04:37:45.365Z,0.00
2018-12-22T04:38:45.406Z,0.00
2018-12-22T04:39:45.428Z,0.00
2018-12-22T04:40:45.457Z,0.00
2018-12-22T04:41:45.537Z,0.00
2018-12-22T04:42:45.518Z,0.00
2018-12-22T04:43:45.550Z,0.00
2018-12-22T04:44:45.579Z,0.00
2018-12-22T04:45:45.608Z,0.00
2018-12-22T04:46:45.639Z,0.00
2018-12-22T04:47:45.669Z,0.00
2018-12-22T04:48:45.699Z,0.00
2018-12-22T04:49:45.731Z,0.00
2018-12-22T04:50:45.762Z,0.00
2018-12-22T04:51:45.790Z,0.00
2018-12-22T04:52:45.822Z,0.00
2018-12-22T04:53:45.851Z,0.00
2018-12-22T04:54:45.882Z,0.00
2018-12-22T04:55:45.911Z,0.00
2018-12-22T04:56:45.948Z,0.00
2018-12-22T04:57:45.974Z,0.00
2018-12-22T04:58:46.004Z,0.00
2018-12-22T04:59:46.034Z,0.00
2018-12-22T05:00:46.065Z,0.00
2018-12-22T05:01:46.094Z,0.00
2018-12-22T05:02:46.126Z,0.00
2018-12-22T05:03:46.250Z,0.00
2018-12-22T05:04:46.185Z,0.00
2018-12-22T05:05:46.216Z,0.00
2018-12-22T05:06:46.246Z,0.00
2018-12-22T05:07:46.275Z,0.00
2018-12-22T05:08:46.357Z,0.00
2018-12-22T05:09:46.387Z,0.00
2018-12-22T05:10:46.368Z,0.00
2018-12-22T05:11:46.476Z,0.00
2018-12-22T05:12:46.427Z,0.00
2018-12-22T05:13:46.458Z,0.00
2018-12-22T05:14:46.488Z,0.00
2018-12-22T05:15:46.519Z,0.00
2018-12-22T05:16:46.549Z,0.00
2018-12-22T05:17:46.578Z,0.00
2018-12-22T05:18:46.612Z,0.00
2018-12-22T05:19:46.640Z,0.00
2018-12-22T05:20:46.670Z,0.00
2018-12-22T05:21:46.701Z,0.00
2018-12-22T05:22:46.732Z,0.00
2018-12-22T05:23:46.761Z,0.00
2018-12-22T05:24:47.042Z,0.00
2018-12-22T05:25:46.823Z,0.00
2018-12-22T05:26:46.854Z,0.00
2018-12-22T05:27:46.881Z,0.00
2018-12-22T05:28:46.912Z,0.00
2018-12-22T05:29:51.844Z,0.00
2018-12-22T05:30:46.979Z,0.00
2018-12-22T05:31:47.060Z,0.00
2018-12-22T05:32:47.037Z,0.00
2018-12-22T05:33:47.068Z,0.00
2018-12-22T05:34:47.094Z,0.00
2018-12-22T05:35:47.124Z,0.00
2018-12-22T05:36:47.154Z,0.00
2018-12-22T05:37:47.187Z,0.00
2018-12-22T05:38:47.215Z,0.00
2018-12-22T05:39:47.245Z,0.00
2018-12-22T05:40:47.275Z,0.00
2018-12-22T05:41:47.307Z,0.00
2018-12-22T05:42:47.339Z,0.00
2018-12-22T05:43:47.367Z,0.00
2018-12-22T05:44:47.396Z,0.00
2018-12-22T05:45:47.432Z,0.00
2018-12-22T05:46:47.458Z,0.00
2018-12-22T05:47:47.490Z,0.00
2018-12-22T05:48:47.518Z,0.00
2018-12-22T05:49:47.548Z,0.00
2018-12-22T05:50:47.629Z,0.00
2018-12-22T05:51:47.609Z,0.00
2018-12-22T05:52:47.639Z,0.00
2018-12-22T05:53:47.670Z,0.00
2018-12-22T05:54:47.701Z,0.00
2018-12-22T05:55:47.735Z,0.00
2018-12-22T05:56:47.762Z,0.00
2018-12-22T05:57:47.791Z,0.00
2018-12-22T05:58:47.822Z,0.00
2018-12-22T05:59:47.853Z,0.00
2018-12-22T06:00:47.882Z,0.00
2018-12-22T06:01:47.914Z,0.00
2018-12-22T06:02:47.945Z,0.00
2018-12-22T06:03:47.973Z,0.00
2018-12-22T06:04:48.004Z,0.00
2018-12-22T06:05:48.034Z,0.00
2018-12-22T06:06:48.066Z,0.00
2018-12-22T06:07:48.097Z,0.00
2018-12-22T06:08:48.126Z,0.00
2018-12-22T06:09:48.156Z,0.00
2018-12-22T06:10:48.187Z,0.00
2018-12-22T06:11:48.219Z,0.00
2018-12-22T06:12:48.247Z,0.00
2018-12-22T06:13:48.279Z,0.00
2018-12-22T06:14:48.307Z,0.00
2018-12-22T06:15:48.340Z,0.00
2018-12-22T06:16:48.368Z,0.00
2018-12-22T06:17:48.399Z,0.00
2018-12-22T06:18:48.432Z,0.00
2018-12-22T06:19:48.459Z,0.00
2018-12-22T06:20:48.490Z,0.00
2018-12-22T06:21:48.522Z,0.00
2018-12-22T06:22:48.552Z,0.00
2018-12-22T06:23:48.582Z,0.00
2018-12-22T06:24:48.612Z,0.00
2018-12-22T06:25:48.642Z,0.00
2018-12-22T06:26:48.672Z,0.00
2018-12-22T06:27:48.701Z,0.00
2018-12-22T06:28:48.736Z,0.00
2018-12-22T06:29:48.763Z,0.00
2018-12-22T06:30:48.794Z,0.00
2018-12-22T06:31:48.824Z,0.00
2018-12-22T06:32:48.851Z,0.00
2018-12-22T06:33:48.886Z,0.00
2018-12-22T06:34:48.912Z,0.00
2018-12-22T06:35:48.943Z,0.00
2018-12-22T06:36:48.972Z,0.00
2018-12-22T06:37:49.003Z,0.00
2018-12-22T06:38:49.033Z,0.00
2018-12-22T06:39:49.062Z,0.00
2018-12-22T06:40:49.092Z,0.00
2018-12-22T06:41:49.123Z,0.00
2018-12-22T06:42:49.152Z,0.00
2018-12-22T06:43:49.181Z,0.00
2018-12-22T06:44:49.213Z,0.00
2018-12-22T06:45:49.242Z,0.00
2018-12-22T06:46:49.273Z,0.00
2018-12-22T06:47:49.302Z,0.00
2018-12-22T06:48:49.331Z,0.00
2018-12-22T06:49:49.362Z,0.00
2018-12-22T06:50:49.391Z,0.00
2018-12-22T06:51:49.423Z,0.00
2018-12-22T06:52:49.454Z,4.00
2018-12-22T06:53:49.482Z,0.00
2018-12-22T06:54:49.511Z,0.00
2018-12-22T06:55:49.541Z,4.00
2018-12-22T06:56:49.570Z,4.00
2018-12-22T06:57:49.602Z,4.00
2018-12-22T06:58:49.640Z,4.00
2018-12-22T06:59:49.660Z,4.00
2018-12-22T07:00:49.691Z,8.00
2018-12-22T07:01:49.720Z,8.00
2018-12-22T07:02:49.751Z,16.00
2018-12-22T07:03:49.780Z,20.00
2018-12-22T07:04:49.811Z,24.00
2018-12-22T07:05:49.840Z,28.00
2018-12-22T07:06:49.871Z,32.00
2018-12-22T07:07:49.899Z,32.00
2018-12-22T07:08:49.931Z,32.00
2018-12-22T07:09:49.962Z,28.00
2018-12-22T07:10:49.991Z,32.00
2018-12-22T07:11:50.022Z,32.00
2018-12-22T07:12:50.049Z,36.00
2018-12-22T07:13:50.080Z,48.00
2018-12-22T07:14:50.110Z,56.00
2018-12-22T07:15:50.138Z,64.00
2018-12-22T07:16:50.169Z,80.00
2018-12-22T07:17:50.201Z,96.00
2018-12-22T07:18:50.231Z,100.00
2018-12-22T07:19:50.259Z,100.00
2018-12-22T07:20:50.289Z,100.00
2018-12-22T07:21:50.321Z,100.00
2018-12-22T07:22:50.350Z,112.00
2018-12-22T07:23:50.379Z,128.00
2018-12-22T07:24:50.409Z,152.00
2018-12-22T07:25:50.489Z,172.00
2018-12-22T07:26:50.469Z,192.00
2018-12-22T07:27:50.500Z,200.00
2018-12-22T07:28:50.529Z,188.00
2018-12-22T07:29:50.559Z,204.00
2018-12-22T07:30:50.589Z,236.00
2018-12-22T07:31:50.622Z,284.00
2018-12-22T07:32:56.947Z,316.00
2018-12-22T07:33:50.679Z,344.00
2018-12-22T07:34:50.708Z,384.00
2018-12-22T07:35:50.739Z,416.00
2018-12-22T07:36:50.767Z,460.00
2018-12-22T07:37:50.797Z,512.00
2018-12-22T07:38:50.830Z,540.00
2018-12-22T07:39:50.857Z,560.00
2018-12-22T07:40:50.887Z,576.00
2018-12-22T07:41:50.918Z,604.00
2018-12-22T07:42:50.950Z,620.00
2018-12-22T07:43:50.975Z,696.00
2018-12-22T07:44:51.007Z,812.00
2018-12-22T07:45:51.036Z,864.00
2018-12-22T07:46:51.066Z,936.00
2018-12-22T07:47:51.096Z,1032.00
2018-12-22T07:48:51.125Z,1128.00
2018-12-22T07:49:51.155Z,1176.00
2018-12-22T07:50:51.184Z,1280.00
2018-12-22T07:51:51.214Z,1336.00
2018-12-22T07:52:51.667Z,1084.00
2018-12-22T07:53:51.273Z,924.00
2018-12-22T07:54:51.304Z,888.00
2018-12-22T07:55:51.332Z,844.00
2018-12-22T07:56:51.424Z,828.00
2018-12-22T07:57:51.392Z,836.00
2018-12-22T07:58:51.425Z,908.00
2018-12-22T07:59:51.451Z,1040.00
2018-12-22T08:00:51.480Z,1004.00
2018-12-22T08:01:51.509Z,1036.00
2018-12-22T08:02:51.540Z,992.00
2018-12-22T08:03:51.573Z,936.00
2018-12-22T08:04:51.601Z,844.00
2018-12-22T08:05:51.630Z,776.00
2018-12-22T08:06:51.658Z,720.00
2018-12-22T08:07:51.687Z,720.00
2018-12-22T08:08:51.720Z,644.00
2018-12-22T08:09:51.748Z,604.00
2018-12-22T08:10:51.778Z,544.00
2018-12-22T08:11:51.807Z,556.00
2018-12-22T08:12:51.838Z,620.00
2018-12-22T08:13:51.867Z,756.00
2018-12-22T08:14:51.897Z,840.00
2018-12-22T08:15:51.925Z,856.00
2018-12-22T08:16:51.955Z,740.00
2018-12-22T08:17:51.985Z,752.00
2018-12-22T08:18:52.015Z,656.00
2018-12-22T08:19:52.044Z,640.00
2018-12-22T08:20:52.078Z,620.00
2018-12-22T08:21:52.109Z,576.00
2018-12-22T08:22:52.135Z,564.00
2018-12-22T08:23:52.163Z,576.00
2018-12-22T08:24:52.195Z,708.00
2018-12-22T08:25:52.224Z,772.00
2018-12-22T08:26:52.254Z,928.00
2018-12-22T08:27:52.284Z,996.00
2018-12-22T08:28:52.352Z,1176.00
2018-12-22T08:29:52.341Z,1700.00
2018-12-22T08:30:52.372Z,1788.00
2018-12-22T08:31:52.401Z,1824.00
2018-12-22T08:32:52.433Z,1848.00
2018-12-22T08:33:52.461Z,1876.00
2018-12-22T08:34:52.491Z,1972.00
2018-12-22T08:35:52.520Z,2088.00
2018-12-22T08:36:54.455Z,2312.00
2018-12-22T08:37:52.580Z,2660.00
2018-12-22T08:38:52.611Z,2516.00
2018-12-22T08:39:52.638Z,2404.00
2018-12-22T08:40:52.668Z,1968.00
2018-12-22T08:41:52.699Z,1956.00
2018-12-22T08:42:52.729Z,1868.00
2018-12-22T08:43:52.759Z,1700.00
2018-12-22T08:44:52.788Z,1288.00
2018-12-22T08:45:52.823Z,1092.00
2018-12-22T08:46:52.849Z,1148.00
2018-12-22T08:47:52.879Z,1192.00
2018-12-22T08:48:52.907Z,1252.00
2018-12-22T08:49:52.938Z,1232.00
2018-12-22T08:50:52.970Z,1064.00
2018-12-22T08:51:52.998Z,892.00
2018-12-22T08:52:53.028Z,812.00
2018-12-22T08:53:53.061Z,1096.00
2018-12-22T08:54:53.088Z,1452.00
2018-12-22T08:55:53.121Z,1764.00
2018-12-22T08:56:53.150Z,2032.00
2018-12-22T08:57:53.179Z,1668.00
2018-12-22T08:58:53.209Z,1152.00
2018-12-22T08:59:53.239Z,1192.00
2018-12-22T09:00:53.268Z,1540.00
2018-12-22T09:01:53.349Z,1760.00
2018-12-22T09:02:53.329Z,1628.00
2018-12-22T09:03:53.360Z,1220.00
2018-12-22T09:04:53.389Z,1380.00
2018-12-22T09:05:53.421Z,1460.00
2018-12-22T09:06:53.450Z,1456.00
2018-12-22T09:07:53.480Z,1472.00
2018-12-22T09:08:53.988Z,1756.00
2018-12-22T09:09:53.541Z,2168.00
2018-12-22T09:10:53.571Z,1820.00
2018-12-22T09:11:53.603Z,1388.00
2018-12-22T09:12:53.635Z,1680.00
2018-12-22T09:13:53.662Z,1956.00
2018-12-22T09:14:53.693Z,2344.00
2018-12-22T09:15:53.725Z,2276.00
2018-12-22T09:16:53.755Z,2236.00
2018-12-22T09:17:53.786Z,2136.00
2018-12-22T09:18:53.817Z,2036.00
2018-12-22T09:19:53.845Z,1688.00
2018-12-22T09:20:53.876Z,1548.00
2018-12-22T09:21:53.909Z,1604.00
2018-12-22T09:22:53.937Z,1456.00
2018-12-22T09:23:53.968Z,1156.00
2018-12-22T09:24:53.996Z,996.00
2018-12-22T09:25:54.028Z,1048.00
2018-12-22T09:26:54.060Z,1344.00
2018-12-22T09:27:54.088Z,1548.00
2018-12-22T09:28:54.119Z,1348.00
2018-12-22T09:29:54.147Z,1080.00
2018-12-22T09:31:00.767Z,1288.00
2018-12-22T09:31:54.208Z,1848.00
2018-12-22T09:32:54.239Z,2440.00
2018-12-22T09:33:54.269Z,3100.00
2018-12-22T09:34:54.298Z,3388.00
2018-12-22T09:35:54.328Z,3336.00
2018-12-22T09:36:54.358Z,3920.00
2018-12-22T09:37:54.394Z,4688.00
2018-12-22T09:38:54.428Z,4620.00
2018-12-22T09:39:54.448Z,3760.00
2018-12-22T09:40:54.478Z,3404.00
2018-12-22T09:41:54.515Z,2772.00
2018-12-22T09:42:54.545Z,2036.00
2018-12-22T09:43:54.571Z,1696.00
2018-12-22T09:44:54.602Z,1236.00
2018-12-22T09:45:54.645Z,1192.00
2018-12-22T09:46:54.661Z,1560.00
2018-12-22T09:47:54.692Z,1868.00
2018-12-22T09:48:54.723Z,2216.00
2018-12-22T09:49:54.752Z,2696.00
2018-12-22T09:50:54.783Z,3336.00
2018-12-22T09:51:54.812Z,2716.00
2018-12-22T09:52:54.844Z,1820.00
2018-12-22T09:53:54.875Z,1652.00
2018-12-22T09:54:54.906Z,1660.00
2018-12-22T09:55:54.935Z,1812.00
2018-12-22T09:56:54.967Z,1696.00
2018-12-22T09:57:54.996Z,1452.00
2018-12-22T09:58:55.027Z,1400.00
2018-12-22T09:59:55.056Z,1312.00
2018-12-22T10:00:55.090Z,1196.00
2018-12-22T10:01:55.118Z,1332.00
2018-12-22T10:02:55.148Z,1280.00
2018-12-22T10:03:55.205Z,1244.00
2018-12-22T10:04:55.207Z,1180.00
2018-12-22T10:05:55.260Z,956.00
2018-12-22T10:06:55.269Z,1060.00
2018-12-22T10:07:55.298Z,1160.00
2018-12-22T10:08:55.331Z,1204.00
2018-12-22T10:09:55.360Z,1368.00
2018-12-22T10:10:55.391Z,1924.00
2018-12-22T10:11:55.419Z,1932.00
2018-12-22T10:12:55.450Z,1660.00
2018-12-22T10:13:55.480Z,1840.00
2018-12-22T10:14:55.511Z,2356.00
2018-12-22T10:15:55.541Z,2956.00
2018-12-22T10:16:55.572Z,3216.00
2018-12-22T10:17:55.601Z,3136.00
2018-12-22T10:18:55.632Z,2620.00
2018-12-22T10:19:55.663Z,2752.00
2018-12-22T10:20:55.695Z,2868.00
2018-12-22T10:21:55.725Z,2476.00
2018-12-22T10:22:55.780Z,2168.00
2018-12-22T10:23:55.782Z,2228.00
2018-12-22T10:24:55.815Z,2228.00
2018-12-22T10:25:55.845Z,2096.00
2018-12-22T10:26:55.878Z,1848.00
2018-12-22T10:27:55.906Z,1940.00
2018-12-22T10:28:55.936Z,2080.00
2018-12-22T10:29:55.967Z,2476.00
2018-12-22T10:30:55.998Z,2956.00
2018-12-22T10:31:56.027Z,3464.00
2018-12-22T10:32:56.059Z,3796.00
2018-12-22T10:33:56.089Z,4360.00
2018-12-22T10:34:56.121Z,4788.00
2018-12-22T10:35:56.150Z,5384.00
2018-12-22T10:36:56.180Z,5680.00
2018-12-22T10:37:56.213Z,5576.00
2018-12-22T10:38:56.242Z,5056.00
2018-12-22T10:39:56.274Z,4396.00
2018-12-22T10:40:56.304Z,3728.00
2018-12-22T10:41:56.335Z,2732.00
2018-12-22T10:42:56.365Z,2104.00
2018-12-22T10:43:56.397Z,1644.00
2018-12-22T10:44:56.425Z,1524.00
2018-12-22T10:45:56.456Z,1856.00
2018-12-22T10:46:56.487Z,3268.00
2018-12-22T10:47:56.517Z,5044.00
2018-12-22T10:48:56.548Z,4432.00
2018-12-22T10:49:56.579Z,3560.00
2018-12-22T10:50:56.610Z,2960.00
2018-12-22T10:51:56.639Z,3216.00
2018-12-22T10:52:56.675Z,3588.00
2018-12-22T10:53:56.702Z,3812.00
2018-12-22T10:54:56.731Z,4324.00
2018-12-22T10:55:56.762Z,4316.00
2018-12-22T10:56:56.792Z,3520.00
2018-12-22T10:57:56.823Z,3328.00
2018-12-22T10:58:56.855Z,3296.00
2018-12-22T10:59:56.887Z,3272.00
2018-12-22T11:00:56.914Z,3648.00
2018-12-22T11:01:56.946Z,3488.00
2018-12-22T11:02:56.977Z,3212.00
2018-12-22T11:03:57.011Z,3396.00
2018-12-22T11:04:57.036Z,3428.00
2018-12-22T11:05:57.067Z,3636.00
2018-12-22T11:06:57.098Z,4148.00
2018-12-22T11:07:57.128Z,3816.00
2018-12-22T11:08:57.158Z,3344.00
2018-12-22T11:09:57.190Z,2852.00
2018-12-22T11:10:57.220Z,2316.00
2018-12-22T11:11:57.305Z,2604.00
2018-12-22T11:12:57.281Z,2864.00
2018-12-22T11:13:57.313Z,3140.00
2018-12-22T11:14:57.348Z,3320.00
2018-12-22T11:15:57.372Z,3244.00
2018-12-22T11:16:57.403Z,3300.00
2018-12-22T11:17:57.435Z,3208.00
2018-12-22T11:18:57.466Z,2816.00
2018-12-22T11:19:57.496Z,2708.00
2018-12-22T11:20:57.526Z,2256.00
2018-12-22T11:21:57.562Z,1532.00
2018-12-22T11:22:57.672Z,1248.00
2018-12-22T11:23:57.618Z,1104.00
2018-12-22T11:24:57.649Z,952.00
2018-12-22T11:25:57.679Z,852.00
2018-12-22T11:26:57.710Z,920.00
2018-12-22T11:27:57.740Z,956.00
2018-12-22T11:28:57.772Z,872.00
2018-12-22T11:29:57.802Z,860.00
2018-12-22T11:30:57.836Z,936.00
2018-12-22T11:31:57.864Z,976.00
2018-12-22T11:32:57.894Z,1032.00
2018-12-22T11:33:57.926Z,1064.00
2018-12-22T11:34:57.955Z,1060.00
2018-12-22T11:35:57.985Z,1176.00
2018-12-22T11:36:58.018Z,1780.00
2018-12-22T11:37:58.046Z,2780.00
2018-12-22T11:38:58.077Z,3632.00
2018-12-22T11:39:58.108Z,4712.00
2018-12-22T11:40:58.142Z,5032.00
2018-12-22T11:41:58.170Z,4380.00
2018-12-22T11:42:58.200Z,3796.00
2018-12-22T11:43:58.228Z,4216.00
2018-12-22T11:44:58.260Z,4952.00
2018-12-22T11:45:58.292Z,5328.00
2018-12-22T11:46:58.323Z,5624.00
2018-12-22T11:47:58.351Z,5372.00
2018-12-22T11:48:58.382Z,4948.00
2018-12-22T11:49:58.413Z,5164.00
2018-12-22T11:50:58.444Z,4580.00
2018-12-22T11:51:58.474Z,3820.00
2018-12-22T11:52:58.506Z,2652.00
2018-12-22T11:53:58.536Z,1836.00
2018-12-22T11:54:58.568Z,1712.00
2018-12-22T11:55:58.597Z,2228.00
2018-12-22T11:56:58.628Z,3272.00
2018-12-22T11:57:58.661Z,4476.00
2018-12-22T11:58:58.692Z,5388.00
2018-12-22T11:59:58.721Z,5252.00
2018-12-22T12:00:58.753Z,4100.00
2018-12-22T12:01:58.780Z,3236.00
2018-12-22T12:02:58.818Z,2860.00
2018-12-22T12:03:58.848Z,2316.00
2018-12-22T12:04:58.874Z,2048.00
2018-12-22T12:05:58.905Z,1916.00
2018-12-22T12:06:58.935Z,1700.00
2018-12-22T12:07:58.965Z,1416.00
2018-12-22T12:08:58.995Z,1196.00
2018-12-22T12:09:59.028Z,1148.00
2018-12-22T12:11:00.510Z,1120.00
2018-12-22T12:11:59.090Z,1104.00
2018-12-22T12:12:59.124Z,1176.00
2018-12-22T12:13:59.148Z,1148.00
2018-12-22T12:14:59.183Z,1044.00
2018-12-22T12:15:59.209Z,920.00
2018-12-22T12:16:59.241Z,868.00
2018-12-22T12:17:59.271Z,908.00
2018-12-22T12:18:59.302Z,988.00
2018-12-22T12:19:59.331Z,1256.00
2018-12-22T12:20:59.363Z,1328.00
2018-12-22T12:21:59.392Z,1540.00
2018-12-22T12:22:59.423Z,1696.00
2018-12-22T12:24:00.502Z,1848.00
2018-12-22T12:24:59.482Z,2084.00
2018-12-22T12:25:59.517Z,2084.00
2018-12-22T12:26:59.543Z,1680.00
2018-12-22T12:27:59.573Z,1700.00
2018-12-22T12:28:59.603Z,2368.00
2018-12-22T12:29:59.632Z,3688.00
2018-12-22T12:30:59.665Z,4548.00
2018-12-22T12:31:59.692Z,5272.00
2018-12-22T12:32:59.722Z,6428.00
2018-12-22T12:33:59.753Z,7536.00
2018-12-22T12:34:59.786Z,6972.00
2018-12-22T12:35:59.845Z,5620.00
2018-12-22T12:36:59.915Z,4508.00
2018-12-22T12:37:59.873Z,3688.00
2018-12-22T12:38:59.901Z,2884.00
2018-12-22T12:39:59.933Z,2264.00
2018-12-22T12:40:59.964Z,1900.00
2018-12-22T12:41:59.993Z,1692.00
2018-12-22T12:43:00.023Z,1556.00
2018-12-22T12:44:00.052Z,1516.00
2018-12-22T12:45:00.097Z,1936.00
2018-12-22T12:46:00.115Z,2372.00
2018-12-22T12:47:00.143Z,2960.00
2018-12-22T12:48:00.223Z,3452.00